Aeroporto :
LOGIN :

Iscrizione | Disclaimer

   EN    FR    IT 

 










Sommario :    VFR   VFR Marginale   IFR   IFR Intensivo   IFR Molto Intensivo
Visibilità : 
Base nubi : 
>= 8 km
>= 3000ft
5 / 8 km
1000 / 3000 ft
1500m / 5 km
500 / 1000 ft
800 / 1500m
200 / 500 ft
< 800m
< 200 ft
Simboli :   Temporali  Nebbia  Neve Forte  Precipitazioni Forti  Vento > 20 kt
SIGMETs :   Varie  Temporali  Ghiacco  Turbolenza  Onda orograficha  Ceneri Vulcaniche






- Altitudine del aeroporto : 157 ft
- Codice IATA : LIL


LFQQ - Lille Lesquin

ULTIMO METAR :
  • 231800Z AUTO 31016KT 9999 FEW013 BKN023 BKN030 09/06 Q1021 NOSIG

METARs OBSOLETI :
  • 231730Z AUTO 27016KT 9999 FEW010/// SCT015/// BKN038/// ///TCU 10/08 Q1020 BECMG 22005KT BKN025
  • 231700Z AUTO 26019KT 9999 BKN017/// OVC025/// ///TCU 12/10 Q1019 TEMPO 3000 DZRA BECMG 32015G25KT BKN025
  • 231630Z AUTO 26020KT 9999 OVC015 12/10 Q1018 TEMPO 3000 DZRA OVC004 BECMG 32015G25KT
  • 231600Z AUTO 25022KT 9999 OVC014 13/10 Q1018 TEMPO 3000 DZRA OVC004 BECMG 24025G35KT
  • 231530Z AUTO 25024G34KT 9999 OVC014 13/10 Q1017 TEMPO 3000 DZRA OVC004
  • 231500Z AUTO 25024G34KT 9999 OVC014 13/10 Q1017 TEMPO 3000 DZRA OVC004

TAF TAF LFQQ
Valido dal 23 a 18 ore il 25 a 00 ore UTC


231700Z 2318/2424 30012KT 9999 BKN030
BECMG 2320/2323 VRB02KT
BECMG 2403/2406 15010KT 2000 RA OVC013
TEMPO 2406/2411 OVC004
FM241100 24020G33KT 9999 BKN020
TEMPO 2414/2423 2000 RA OVC012
ATIS : +33 3 20 16 19 54



MetMap, La meteo Aeronautica in un colpo d'occhio ! - Copyright ORBIFLY Dicembre 2007 - Disclaimer

ORBIFLY MET'MAP TEAM :

Programmazione e sviluppo : Alexandra Zaïnal
Concezione : Baudouin d'Aumeries
Aiuto per la programmazione : Marc-Olivier Méhu
Supporto tecnico e logistico : Manuel Goepfert
Aiuto per la traduzione : Arnaldo La Scala

Contatto : metmap@orbifly.com




FONTI E CREDITI :

   NOAA